sensor_id;sensor_type;location;lat;lon;timestamp;P1;durP1;ratioP1;P2;durP2;ratioP2
13687;SDS011;6916;51.504;7.416;2023-01-16T00:01:00;3.43;;;0.70;;
13687;SDS011;6916;51.504;7.416;2023-01-16T00:06:03;1.40;;;0.20;;
13687;SDS011;6916;51.504;7.416;2023-01-16T00:11:05;1.87;;;0.30;;
13687;SDS011;6916;51.504;7.416;2023-01-16T00:16:07;3.37;;;0.40;;
13687;SDS011;6916;51.504;7.416;2023-01-16T00:21:09;3.83;;;0.77;;
13687;SDS011;6916;51.504;7.416;2023-01-16T00:26:12;1.00;;;0.50;;
13687;SDS011;6916;51.504;7.416;2023-01-16T00:31:14;3.80;;;0.40;;
13687;SDS011;6916;51.504;7.416;2023-01-16T00:36:16;1.90;;;0.30;;
13687;SDS011;6916;51.504;7.416;2023-01-16T00:41:19;6.33;;;0.50;;
13687;SDS011;6916;51.504;7.416;2023-01-16T00:46:21;1.27;;;0.30;;
13687;SDS011;6916;51.504;7.416;2023-01-16T00:51:23;2.00;;;0.20;;
13687;SDS011;6916;51.504;7.416;2023-01-16T00:56:25;0.63;;;0.40;;
13687;SDS011;6916;51.504;7.416;2023-01-16T01:01:27;3.00;;;0.40;;
13687;SDS011;6916;51.504;7.416;2023-01-16T01:06:29;0.93;;;0.30;;
13687;SDS011;6916;51.504;7.416;2023-01-16T01:11:31;3.43;;;0.40;;
13687;SDS011;6916;51.504;7.416;2023-01-16T01:16:34;1.93;;;0.47;;
13687;SDS011;6916;51.504;7.416;2023-01-16T01:21:36;1.10;;;0.20;;
13687;SDS011;6916;51.504;7.416;2023-01-16T01:26:38;1.50;;;0.50;;
13687;SDS011;6916;51.504;7.416;2023-01-16T01:31:40;1.10;;;0.20;;
13687;SDS011;6916;51.504;7.416;2023-01-16T01:36:43;2.47;;;0.23;;
13687;SDS011;6916;51.504;7.416;2023-01-16T01:41:45;2.30;;;0.40;;
13687;SDS011;6916;51.504;7.416;2023-01-16T01:46:47;2.40;;;0.70;;
13687;SDS011;6916;51.504;7.416;2023-01-16T01:51:49;0.20;;;0.10;;
13687;SDS011;6916;51.504;7.416;2023-01-16T01:56:57;1.27;;;0.30;;
13687;SDS011;6916;51.504;7.416;2023-01-16T02:02:01;0.87;;;0.17;;
13687;SDS011;6916;51.504;7.416;2023-01-16T02:07:07;4.90;;;0.50;;
13687;SDS011;6916;51.504;7.416;2023-01-16T02:12:11;0.40;;;0.20;;
13687;SDS011;6916;51.504;7.416;2023-01-16T02:17:16;0.20;;;0.20;;
13687;SDS011;6916;51.504;7.416;2023-01-16T02:28:11;1.37;;;0.60;;
13687;SDS011;6916;51.504;7.416;2023-01-16T02:33:27;2.00;;;0.30;;
13687;SDS011;6916;51.504;7.416;2023-01-16T02:38:50;2.13;;;0.17;;
13687;SDS011;6916;51.504;7.416;2023-01-16T02:44:18;0.40;;;0.20;;
13687;SDS011;6916;51.504;7.416;2023-01-16T02:49:40;2.03;;;0.30;;
13687;SDS011;6916;51.504;7.416;2023-01-16T02:55:07;0.47;;;0.10;;
13687;SDS011;6916;51.504;7.416;2023-01-16T03:00:14;1.00;;;0.30;;
13687;SDS011;6916;51.504;7.416;2023-01-16T03:05:21;1.87;;;0.20;;
13687;SDS011;6916;51.504;7.416;2023-01-16T03:10:33;1.80;;;0.20;;
13687;SDS011;6916;51.504;7.416;2023-01-16T03:15:57;1.83;;;0.20;;
13687;SDS011;6916;51.504;7.416;2023-01-16T03:26:16;1.37;;;0.23;;
13687;SDS011;6916;51.504;7.416;2023-01-16T03:31:29;0.73;;;0.30;;
13687;SDS011;6916;51.504;7.416;2023-01-16T03:36:43;0.53;;;0.10;;
13687;SDS011;6916;51.504;7.416;2023-01-16T03:41:49;1.33;;;0.20;;
13687;SDS011;6916;51.504;7.416;2023-01-16T03:46:54;0.43;;;0.20;;
13687;SDS011;6916;51.504;7.416;2023-01-16T03:51:58;0.07;;;0.07;;
13687;SDS011;6916;51.504;7.416;2023-01-16T03:57:13;1.17;;;0.10;;
13687;SDS011;6916;51.504;7.416;2023-01-16T04:02:19;0.20;;;0.00;;
13687;SDS011;6916;51.504;7.416;2023-01-16T04:12:37;0.40;;;0.10;;
13687;SDS011;6916;51.504;7.416;2023-01-16T04:17:43;1.70;;;0.10;;
13687;SDS011;6916;51.504;7.416;2023-01-16T04:22:48;0.90;;;0.10;;
13687;SDS011;6916;51.504;7.416;2023-01-16T04:27:51;1.40;;;0.10;;
13687;SDS011;6916;51.504;7.416;2023-01-16T04:32:53;0.73;;;0.10;;
13687;SDS011;6916;51.504;7.416;2023-01-16T04:37:55;0.87;;;0.10;;
13687;SDS011;6916;51.504;7.416;2023-01-16T04:42:58;0.50;;;0.20;;
13687;SDS011;6916;51.504;7.416;2023-01-16T04:48:00;1.73;;;0.20;;
13687;SDS011;6916;51.504;7.416;2023-01-16T04:53:02;0.50;;;0.10;;
13687;SDS011;6916;51.504;7.416;2023-01-16T04:58:04;3.13;;;0.20;;
13687;SDS011;6916;51.504;7.416;2023-01-16T05:03:06;1.13;;;0.30;;
13687;SDS011;6916;51.504;7.416;2023-01-16T05:08:09;1.47;;;0.20;;
13687;SDS011;6916;51.504;7.416;2023-01-16T05:13:21;1.73;;;0.20;;
13687;SDS011;6916;51.504;7.416;2023-01-16T05:18:23;1.70;;;0.20;;
13687;SDS011;6916;51.504;7.416;2023-01-16T05:23:26;1.80;;;0.20;;
13687;SDS011;6916;51.504;7.416;2023-01-16T05:28:28;1.97;;;0.20;;
13687;SDS011;6916;51.504;7.416;2023-01-16T05:33:30;2.00;;;0.30;;
13687;SDS011;6916;51.504;7.416;2023-01-16T05:38:32;0.30;;;0.10;;
13687;SDS011;6916;51.504;7.416;2023-01-16T05:43:34;2.57;;;0.30;;
13687;SDS011;6916;51.504;7.416;2023-01-16T05:48:36;3.70;;;0.30;;
13687;SDS011;6916;51.504;7.416;2023-01-16T05:53:40;3.70;;;0.43;;
13687;SDS011;6916;51.504;7.416;2023-01-16T05:58:42;2.97;;;0.33;;
13687;SDS011;6916;51.504;7.416;2023-01-16T06:03:44;2.60;;;0.20;;
13687;SDS011;6916;51.504;7.416;2023-01-16T06:08:47;1.20;;;0.20;;
13687;SDS011;6916;51.504;7.416;2023-01-16T06:13:49;1.70;;;0.10;;
13687;SDS011;6916;51.504;7.416;2023-01-16T06:18:51;0.83;;;0.17;;
13687;SDS011;6916;51.504;7.416;2023-01-16T06:23:53;0.60;;;0.00;;
13687;SDS011;6916;51.504;7.416;2023-01-16T06:28:56;0.70;;;0.00;;
13687;SDS011;6916;51.504;7.416;2023-01-16T06:33:58;0.60;;;0.30;;
13687;SDS011;6916;51.504;7.416;2023-01-16T06:39:00;2.17;;;0.20;;
13687;SDS011;6916;51.504;7.416;2023-01-16T06:44:02;1.13;;;0.13;;
13687;SDS011;6916;51.504;7.416;2023-01-16T06:49:05;0.70;;;0.17;;
13687;SDS011;6916;51.504;7.416;2023-01-16T06:54:08;1.63;;;0.20;;
13687;SDS011;6916;51.504;7.416;2023-01-16T06:59:11;0.23;;;0.10;;
13687;SDS011;6916;51.504;7.416;2023-01-16T07:04:13;2.10;;;0.20;;
13687;SDS011;6916;51.504;7.416;2023-01-16T07:09:15;1.90;;;0.20;;
13687;SDS011;6916;51.504;7.416;2023-01-16T07:14:18;0.70;;;0.17;;
13687;SDS011;6916;51.504;7.416;2023-01-16T07:19:39;0.50;;;0.20;;
13687;SDS011;6916;51.504;7.416;2023-01-16T07:24:59;2.30;;;0.53;;
13687;SDS011;6916;51.504;7.416;2023-01-16T07:30:03;0.77;;;0.23;;
13687;SDS011;6916;51.504;7.416;2023-01-16T07:35:06;1.20;;;0.23;;
13687;SDS011;6916;51.504;7.416;2023-01-16T07:40:09;2.93;;;0.30;;
13687;SDS011;6916;51.504;7.416;2023-01-16T07:45:12;0.43;;;0.40;;
13687;SDS011;6916;51.504;7.416;2023-01-16T07:50:14;2.07;;;0.63;;
13687;SDS011;6916;51.504;7.416;2023-01-16T07:55:16;1.57;;;0.20;;
13687;SDS011;6916;51.504;7.416;2023-01-16T08:00:18;1.90;;;0.50;;
13687;SDS011;6916;51.504;7.416;2023-01-16T08:05:21;1.33;;;0.27;;
13687;SDS011;6916;51.504;7.416;2023-01-16T08:10:23;3.07;;;0.30;;
13687;SDS011;6916;51.504;7.416;2023-01-16T08:15:25;3.20;;;0.20;;
13687;SDS011;6916;51.504;7.416;2023-01-16T08:20:27;0.73;;;0.13;;
13687;SDS011;6916;51.504;7.416;2023-01-16T08:25:29;2.10;;;0.30;;
13687;SDS011;6916;51.504;7.416;2023-01-16T08:30:31;2.13;;;0.60;;
13687;SDS011;6916;51.504;7.416;2023-01-16T08:35:34;2.43;;;0.20;;
13687;SDS011;6916;51.504;7.416;2023-01-16T08:40:36;1.43;;;0.20;;
13687;SDS011;6916;51.504;7.416;2023-01-16T08:45:38;2.03;;;0.50;;
13687;SDS011;6916;51.504;7.416;2023-01-16T08:50:59;1.87;;;0.33;;
13687;SDS011;6916;51.504;7.416;2023-01-16T08:56:20;2.13;;;0.47;;
13687;SDS011;6916;51.504;7.416;2023-01-16T09:01:23;2.17;;;0.30;;
13687;SDS011;6916;51.504;7.416;2023-01-16T09:06:25;1.10;;;0.20;;
13687;SDS011;6916;51.504;7.416;2023-01-16T09:11:27;4.23;;;0.43;;
13687;SDS011;6916;51.504;7.416;2023-01-16T09:16:48;2.43;;;0.33;;
13687;SDS011;6916;51.504;7.416;2023-01-16T09:21:51;2.20;;;0.30;;
13687;SDS011;6916;51.504;7.416;2023-01-16T09:26:53;1.63;;;0.60;;
13687;SDS011;6916;51.504;7.416;2023-01-16T09:31:56;3.33;;;0.67;;
13687;SDS011;6916;51.504;7.416;2023-01-16T09:36:58;2.63;;;0.40;;
13687;SDS011;6916;51.504;7.416;2023-01-16T09:47:31;2.30;;;0.20;;
13687;SDS011;6916;51.504;7.416;2023-01-16T09:52:34;1.87;;;0.20;;
13687;SDS011;6916;51.504;7.416;2023-01-16T09:57:57;0.17;;;0.10;;
13687;SDS011;6916;51.504;7.416;2023-01-16T10:03:18;1.70;;;0.20;;
13687;SDS011;6916;51.504;7.416;2023-01-16T10:08:24;0.20;;;0.13;;
13687;SDS011;6916;51.504;7.416;2023-01-16T10:13:38;0.50;;;0.10;;
13687;SDS011;6916;51.504;7.416;2023-01-16T10:19:22;0.20;;;0.10;;
13687;SDS011;6916;51.504;7.416;2023-01-16T10:24:38;0.83;;;0.10;;
13687;SDS011;6916;51.504;7.416;2023-01-16T10:35:04;1.40;;;0.20;;
13687;SDS011;6916;51.504;7.416;2023-01-16T10:40:14;1.43;;;0.20;;
13687;SDS011;6916;51.504;7.416;2023-01-16T10:45:24;1.50;;;0.10;;
13687;SDS011;6916;51.504;7.416;2023-01-16T10:50:47;0.97;;;0.10;;
13687;SDS011;6916;51.504;7.416;2023-01-16T10:55:51;0.10;;;0.10;;
13687;SDS011;6916;51.504;7.416;2023-01-16T11:00:56;2.13;;;0.20;;
13687;SDS011;6916;51.504;7.416;2023-01-16T11:06:05;0.20;;;0.10;;
13687;SDS011;6916;51.504;7.416;2023-01-16T11:11:09;0.97;;;0.10;;
13687;SDS011;6916;51.504;7.416;2023-01-16T11:16:33;0.77;;;0.40;;
13687;SDS011;6916;51.504;7.416;2023-01-16T11:21:54;0.73;;;0.20;;
13687;SDS011;6916;51.504;7.416;2023-01-16T11:27:03;1.03;;;0.20;;
13687;SDS011;6916;51.504;7.416;2023-01-16T11:32:12;0.33;;;0.00;;
13687;SDS011;6916;51.504;7.416;2023-01-16T11:37:15;0.10;;;0.10;;
13687;SDS011;6916;51.504;7.416;2023-01-16T11:42:18;0.53;;;0.13;;
13687;SDS011;6916;51.504;7.416;2023-01-16T11:47:43;0.10;;;0.00;;
13687;SDS011;6916;51.504;7.416;2023-01-16T11:52:47;1.50;;;0.10;;
13687;SDS011;6916;51.504;7.416;2023-01-16T12:08:32;0.80;;;0.13;;
13687;SDS011;6916;51.504;7.416;2023-01-16T12:40:40;0.03;;;0.00;;
13687;SDS011;6916;51.504;7.416;2023-01-16T12:46:30;0.17;;;0.10;;
13687;SDS011;6916;51.504;7.416;2023-01-16T12:51:45;0.00;;;0.00;;
13687;SDS011;6916;51.504;7.416;2023-01-16T12:57:08;0.43;;;0.10;;
13687;SDS011;6916;51.504;7.416;2023-01-16T13:02:29;0.10;;;0.00;;
13687;SDS011;6916;51.504;7.416;2023-01-16T13:07:37;0.43;;;0.00;;
13687;SDS011;6916;51.504;7.416;2023-01-16T13:12:46;1.20;;;0.10;;
13687;SDS011;6916;51.504;7.416;2023-01-16T13:28:33;1.53;;;0.10;;
13687;SDS011;6916;51.504;7.416;2023-01-16T13:33:40;0.20;;;0.00;;
13687;SDS011;6916;51.504;7.416;2023-01-16T13:38:48;0.17;;;0.10;;
13687;SDS011;6916;51.504;7.416;2023-01-16T13:44:08;0.20;;;0.07;;
13687;SDS011;6916;51.504;7.416;2023-01-16T13:49:33;0.77;;;0.20;;
13687;SDS011;6916;51.504;7.416;2023-01-16T13:54:37;0.20;;;0.10;;
13687;SDS011;6916;51.504;7.416;2023-01-16T13:59:51;0.30;;;0.20;;
13687;SDS011;6916;51.504;7.416;2023-01-16T14:20:43;0.10;;;0.10;;
13687;SDS011;6916;51.504;7.416;2023-01-16T14:25:50;1.30;;;0.97;;
13687;SDS011;6916;51.504;7.416;2023-01-16T14:30:54;0.40;;;0.20;;
13687;SDS011;6916;51.504;7.416;2023-01-16T14:35:57;0.57;;;0.10;;
13687;SDS011;6916;51.504;7.416;2023-01-16T14:41:02;0.63;;;0.10;;
13687;SDS011;6916;51.504;7.416;2023-01-16T14:46:30;0.40;;;0.10;;
13687;SDS011;6916;51.504;7.416;2023-01-16T14:51:59;0.20;;;0.10;;
13687;SDS011;6916;51.504;7.416;2023-01-16T14:57:22;0.90;;;0.20;;
13687;SDS011;6916;51.504;7.416;2023-01-16T15:12:51;0.53;;;0.20;;
13687;SDS011;6916;51.504;7.416;2023-01-16T15:17:54;0.87;;;0.50;;
13687;SDS011;6916;51.504;7.416;2023-01-16T15:23:36;0.20;;;0.10;;
13687;SDS011;6916;51.504;7.416;2023-01-16T15:39:24;0.10;;;0.10;;
13687;SDS011;6916;51.504;7.416;2023-01-16T15:44:39;1.30;;;0.30;;
13687;SDS011;6916;51.504;7.416;2023-01-16T15:55:10;0.87;;;0.87;;
13687;SDS011;6916;51.504;7.416;2023-01-16T16:00:22;1.13;;;0.70;;
13687;SDS011;6916;51.504;7.416;2023-01-16T16:05:27;1.17;;;0.40;;
13687;SDS011;6916;51.504;7.416;2023-01-16T16:10:30;1.30;;;1.20;;
13687;SDS011;6916;51.504;7.416;2023-01-16T16:15:58;0.50;;;0.33;;
13687;SDS011;6916;51.504;7.416;2023-01-16T16:21:23;0.30;;;0.30;;
13687;SDS011;6916;51.504;7.416;2023-01-16T16:26:28;1.93;;;1.27;;
13687;SDS011;6916;51.504;7.416;2023-01-16T16:31:32;0.53;;;0.50;;
13687;SDS011;6916;51.504;7.416;2023-01-16T16:36:46;2.37;;;0.77;;
13687;SDS011;6916;51.504;7.416;2023-01-16T16:41:49;3.20;;;0.50;;
13687;SDS011;6916;51.504;7.416;2023-01-16T16:47:23;0.80;;;0.60;;
13687;SDS011;6916;51.504;7.416;2023-01-16T16:52:33;0.30;;;0.30;;
13687;SDS011;6916;51.504;7.416;2023-01-16T16:57:40;3.13;;;0.70;;
13687;SDS011;6916;51.504;7.416;2023-01-16T17:02:47;1.70;;;0.60;;
13687;SDS011;6916;51.504;7.416;2023-01-16T17:07:50;0.63;;;0.30;;
13687;SDS011;6916;51.504;7.416;2023-01-16T17:12:53;1.33;;;0.90;;
13687;SDS011;6916;51.504;7.416;2023-01-16T17:17:57;1.03;;;0.63;;
13687;SDS011;6916;51.504;7.416;2023-01-16T17:22:59;0.90;;;0.50;;
13687;SDS011;6916;51.504;7.416;2023-01-16T17:28:02;0.40;;;0.20;;
13687;SDS011;6916;51.504;7.416;2023-01-16T17:33:14;0.97;;;0.70;;
13687;SDS011;6916;51.504;7.416;2023-01-16T17:38:18;0.40;;;0.40;;
13687;SDS011;6916;51.504;7.416;2023-01-16T17:43:21;1.07;;;0.83;;
13687;SDS011;6916;51.504;7.416;2023-01-16T17:48:42;1.17;;;0.40;;
13687;SDS011;6916;51.504;7.416;2023-01-16T17:53:44;2.73;;;1.73;;
13687;SDS011;6916;51.504;7.416;2023-01-16T17:58:47;1.20;;;0.73;;
13687;SDS011;6916;51.504;7.416;2023-01-16T18:03:59;0.77;;;0.57;;
13687;SDS011;6916;51.504;7.416;2023-01-16T18:09:17;2.13;;;1.23;;
13687;SDS011;6916;51.504;7.416;2023-01-16T18:14:19;1.10;;;0.60;;
13687;SDS011;6916;51.504;7.416;2023-01-16T18:19:41;2.40;;;1.43;;
13687;SDS011;6916;51.504;7.416;2023-01-16T18:24:43;2.13;;;1.93;;
13687;SDS011;6916;51.504;7.416;2023-01-16T18:29:46;0.50;;;0.50;;
13687;SDS011;6916;51.504;7.416;2023-01-16T18:34:52;0.33;;;0.33;;
13687;SDS011;6916;51.504;7.416;2023-01-16T18:40:03;2.27;;;1.73;;
13687;SDS011;6916;51.504;7.416;2023-01-16T18:45:54;0.83;;;0.80;;
13687;SDS011;6916;51.504;7.416;2023-01-16T18:51:16;0.60;;;0.57;;
13687;SDS011;6916;51.504;7.416;2023-01-16T18:56:40;0.67;;;0.50;;
13687;SDS011;6916;51.504;7.416;2023-01-16T19:07:22;0.93;;;0.90;;
13687;SDS011;6916;51.504;7.416;2023-01-16T19:12:26;1.00;;;1.00;;
13687;SDS011;6916;51.504;7.416;2023-01-16T19:17:33;1.00;;;0.90;;
13687;SDS011;6916;51.504;7.416;2023-01-16T19:22:35;1.63;;;1.10;;
13687;SDS011;6916;51.504;7.416;2023-01-16T19:27:37;1.70;;;1.17;;
13687;SDS011;6916;51.504;7.416;2023-01-16T19:32:39;1.30;;;1.17;;
13687;SDS011;6916;51.504;7.416;2023-01-16T19:37:43;1.87;;;1.27;;
13687;SDS011;6916;51.504;7.416;2023-01-16T19:42:48;2.13;;;1.80;;
13687;SDS011;6916;51.504;7.416;2023-01-16T19:48:09;1.80;;;1.60;;
13687;SDS011;6916;51.504;7.416;2023-01-16T19:53:11;2.37;;;2.17;;
13687;SDS011;6916;51.504;7.416;2023-01-16T19:58:13;3.17;;;2.33;;
13687;SDS011;6916;51.504;7.416;2023-01-16T20:03:16;3.27;;;2.80;;
13687;SDS011;6916;51.504;7.416;2023-01-16T20:08:18;3.57;;;3.23;;
13687;SDS011;6916;51.504;7.416;2023-01-16T20:13:20;4.20;;;3.80;;
13687;SDS011;6916;51.504;7.416;2023-01-16T20:18:22;5.17;;;4.13;;
13687;SDS011;6916;51.504;7.416;2023-01-16T20:23:28;4.57;;;4.17;;
13687;SDS011;6916;51.504;7.416;2023-01-16T20:28:33;5.13;;;4.40;;
13687;SDS011;6916;51.504;7.416;2023-01-16T20:33:37;5.17;;;4.77;;
13687;SDS011;6916;51.504;7.416;2023-01-16T20:38:40;5.70;;;5.20;;
13687;SDS011;6916;51.504;7.416;2023-01-16T20:43:43;5.63;;;4.83;;
13687;SDS011;6916;51.504;7.416;2023-01-16T20:49:04;4.17;;;3.70;;
13687;SDS011;6916;51.504;7.416;2023-01-16T20:54:06;4.30;;;3.90;;
13687;SDS011;6916;51.504;7.416;2023-01-16T20:59:09;4.47;;;4.07;;
13687;SDS011;6916;51.504;7.416;2023-01-16T21:04:11;5.33;;;4.93;;
13687;SDS011;6916;51.504;7.416;2023-01-16T21:09:14;6.20;;;5.57;;
13687;SDS011;6916;51.504;7.416;2023-01-16T21:14:17;7.10;;;6.57;;
13687;SDS011;6916;51.504;7.416;2023-01-16T21:19:20;5.03;;;4.53;;
13687;SDS011;6916;51.504;7.416;2023-01-16T21:24:45;3.57;;;3.33;;
13687;SDS011;6916;51.504;7.416;2023-01-16T21:29:54;4.57;;;4.20;;
13687;SDS011;6916;51.504;7.416;2023-01-16T21:34:57;7.63;;;6.10;;
13687;SDS011;6916;51.504;7.416;2023-01-16T21:40:00;7.50;;;6.90;;
13687;SDS011;6916;51.504;7.416;2023-01-16T21:45:02;7.57;;;6.90;;
13687;SDS011;6916;51.504;7.416;2023-01-16T21:50:35;9.33;;;8.53;;
13687;SDS011;6916;51.504;7.416;2023-01-16T21:55:38;9.90;;;8.93;;
13687;SDS011;6916;51.504;7.416;2023-01-16T22:00:40;8.70;;;7.90;;
13687;SDS011;6916;51.504;7.416;2023-01-16T22:05:42;7.50;;;6.73;;
13687;SDS011;6916;51.504;7.416;2023-01-16T22:10:45;5.30;;;4.80;;
13687;SDS011;6916;51.504;7.416;2023-01-16T22:16:11;4.93;;;4.47;;
13687;SDS011;6916;51.504;7.416;2023-01-16T22:21:34;5.00;;;4.50;;
13687;SDS011;6916;51.504;7.416;2023-01-16T22:26:38;5.67;;;5.23;;
13687;SDS011;6916;51.504;7.416;2023-01-16T22:31:40;8.63;;;5.23;;
13687;SDS011;6916;51.504;7.416;2023-01-16T22:36:42;6.00;;;5.50;;
13687;SDS011;6916;51.504;7.416;2023-01-16T22:41:45;5.10;;;4.70;;
13687;SDS011;6916;51.504;7.416;2023-01-16T22:46:47;5.00;;;4.53;;
13687;SDS011;6916;51.504;7.416;2023-01-16T22:51:50;4.00;;;3.63;;
13687;SDS011;6916;51.504;7.416;2023-01-16T22:56:52;4.00;;;3.70;;
13687;SDS011;6916;51.504;7.416;2023-01-16T23:01:54;3.93;;;3.73;;
13687;SDS011;6916;51.504;7.416;2023-01-16T23:06:56;3.90;;;3.60;;
13687;SDS011;6916;51.504;7.416;2023-01-16T23:11:59;4.00;;;3.63;;
13687;SDS011;6916;51.504;7.416;2023-01-16T23:17:01;3.10;;;2.90;;
13687;SDS011;6916;51.504;7.416;2023-01-16T23:22:04;2.63;;;2.43;;
13687;SDS011;6916;51.504;7.416;2023-01-16T23:27:06;2.07;;;1.97;;
13687;SDS011;6916;51.504;7.416;2023-01-16T23:32:08;2.43;;;1.97;;
13687;SDS011;6916;51.504;7.416;2023-01-16T23:37:11;2.23;;;1.97;;
13687;SDS011;6916;51.504;7.416;2023-01-16T23:42:13;2.17;;;2.07;;
13687;SDS011;6916;51.504;7.416;2023-01-16T23:47:34;3.03;;;2.70;;
13687;SDS011;6916;51.504;7.416;2023-01-16T23:52:38;2.73;;;2.50;;
13687;SDS011;6916;51.504;7.416;2023-01-16T23:57:41;3.37;;;3.13;;
